Time,TemperatureF,DewpointF,PressureIn,WindDirection,WindDirectionDegrees,WindSpeedMPH,WindSpeedGustMPH,Humidity,HourlyPrecipIn,Conditions,Clouds,dailyrainin,SoftwareType,DateUTC
2013-04-05 00:00:00,39.6,32.0,30.07,NNE,23,0.4,0.4,74,0.00,,,0.00,WUHU216HW,2013-04-05 04:00:00,
2013-04-05 00:01:00,39.6,32.0,30.07,NNE,23,0.4,0.4,74,0.00,,,0.00,WUHU216HW,2013-04-05 04:01:00,
2013-04-05 00:02:00,39.6,32.0,30.07,NNE,23,0.0,0.4,74,0.00,,,0.00,WUHU216HW,2013-04-05 04:02:00,
2013-04-05 00:07:00,39.6,32.0,30.07,North,0,0.0,0.7,74,0.01,,,0.01,WUHU216HW,2013-04-05 04:07:00,
2013-04-05 00:13:00,39.6,32.3,30.07,North,0,0.0,0.7,75,0.01,,,0.01,WUHU216HW,2013-04-05 04:13:00,
2013-04-05 00:18:00,39.6,32.3,30.06,NNE,23,0.0,0.7,75,0.01,,,0.01,WUHU216HW,2013-04-05 04:18:00,
2013-04-05 00:23:00,39.4,32.1,30.06,NNE,23,0.0,0.2,75,0.01,,,0.01,WUHU216HW,2013-04-05 04:23:00,
2013-04-05 00:28:00,39.4,32.5,30.06,NNE,23,0.0,0.0,76,0.01,,,0.01,WUHU216HW,2013-04-05 04:28:00,
2013-04-05 00:33:00,39.4,33.5,30.05,West,270,0.4,1.1,79,0.01,,,0.01,WUHU216HW,2013-04-05 04:33:00,
2013-04-05 00:38:00,39.4,33.5,30.05,West,270,0.4,1.1,79,0.01,,,0.01,WUHU216HW,2013-04-05 04:38:00,
2013-04-05 00:59:00,38.9,32.6,30.02,NW,315,0.0,0.0,78,0.02,,,0.01,WUHU216HW,2013-04-05 04:59:00,
2013-04-05 01:04:00,38.9,32.6,30.03,NW,315,0.2,0.2,78,0.01,,,0.02,WUHU216HW,2013-04-05 05:04:00,
2013-04-05 01:10:00,38.9,32.9,30.03,NW,315,0.0,0.2,79,0.01,,,0.02,WUHU216HW,2013-04-05 05:10:00,
2013-04-05 01:15:00,38.9,32.6,30.03,North,0,0.0,0.4,78,0.01,,,0.02,WUHU216HW,2013-04-05 05:15:00,
2013-04-05 01:20:00,38.7,32.8,30.02,North,0,0.0,0.4,79,0.01,,,0.02,WUHU216HW,2013-04-05 05:20:00,
2013-04-05 01:25:00,38.9,32.9,30.02,North,0,0.0,0.0,79,0.01,,,0.02,WUHU216HW,2013-04-05 05:25:00,
2013-04-05 01:30:00,38.9,32.6,30.02,North,0,0.0,0.0,78,0.01,,,0.02,WUHU216HW,2013-04-05 05:30:00,
2013-04-05 01:35:00,38.9,32.9,30.01,NW,315,0.0,0.0,79,0.01,,,0.02,WUHU216HW,2013-04-05 05:35:00,
2013-04-05 01:40:00,38.9,32.9,30.01,NNE,23,0.4,0.4,79,0.01,,,0.02,WUHU216HW,2013-04-05 05:40:00,
2013-04-05 01:45:00,38.9,32.9,30.00,SW,225,0.4,0.9,79,0.01,,,0.02,WUHU216HW,2013-04-05 05:45:00,
2013-04-05 01:50:00,38.9,33.3,29.99,West,270,1.3,1.3,80,0.01,,,0.02,WUHU216HW,2013-04-05 05:50:00,
2013-04-05 01:55:00,38.7,33.1,29.99,WSW,248,0.0,1.3,80,0.00,,,0.02,WUHU216HW,2013-04-05 05:55:00,
2013-04-05 02:00:00,38.7,33.4,29.98,WSW,248,0.2,0.9,81,0.00,,,0.02,WUHU216HW,2013-04-05 06:00:00,
2013-04-05 02:05:00,38.5,33.2,29.98,WSW,248,0.2,0.9,81,0.00,,,0.02,WUHU216HW,2013-04-05 06:05:00,
2013-04-05 02:10:00,38.7,33.7,29.98,WSW,248,1.1,1.1,82,0.01,,,0.03,WUHU216HW,2013-04-05 06:10:00,
2013-04-05 02:15:00,38.5,33.5,29.98,WNW,293,0.2,1.1,82,0.01,,,0.03,WUHU216HW,2013-04-05 06:15:00,
2013-04-05 02:21:00,38.7,33.4,29.98,SW,225,0.7,1.1,81,0.01,,,0.03,WUHU216HW,2013-04-05 06:21:00,
2013-04-05 02:26:00,38.7,33.7,29.97,West,270,0.4,0.7,82,0.01,,,0.03,WUHU216HW,2013-04-05 06:26:00,
2013-04-05 02:31:00,38.7,33.4,29.97,WSW,248,0.0,0.4,81,0.01,,,0.03,WUHU216HW,2013-04-05 06:31:00,
2013-04-05 02:36:00,38.5,33.2,29.97,WSW,248,0.0,0.4,81,0.01,,,0.03,WUHU216HW,2013-04-05 06:36:00,
2013-04-05 02:41:00,38.5,34.1,29.96,WSW,248,0.2,1.1,84,0.02,,,0.04,WUHU216HW,2013-04-05 06:41:00,
2013-04-05 02:46:00,38.5,33.5,29.96,WSW,248,0.0,1.1,82,0.02,,,0.04,WUHU216HW,2013-04-05 06:46:00,
2013-04-05 02:51:00,38.5,33.5,29.95,WSW,248,0.4,0.4,82,0.02,,,0.04,WUHU216HW,2013-04-05 06:51:00,
2013-04-05 02:56:00,38.5,33.5,29.95,SSW,203,0.0,0.7,82,0.02,,,0.04,WUHU216HW,2013-04-05 06:56:00,
2013-04-05 03:01:00,38.5,33.5,29.95,SSW,203,0.0,0.7,82,0.02,,,0.04,WUHU216HW,2013-04-05 07:01:00,
2013-04-05 03:06:00,38.5,33.5,29.94,SSW,203,0.4,0.4,82,0.02,,,0.04,WUHU216HW,2013-04-05 07:06:00,
2013-04-05 03:11:00,38.7,34.0,29.94,WSW,248,0.2,0.4,83,0.02,,,0.05,WUHU216HW,2013-04-05 07:11:00,
2013-04-05 03:16:00,38.7,34.3,29.94,WSW,248,0.4,1.1,84,0.02,,,0.05,WUHU216HW,2013-04-05 07:16:00,
2013-04-05 03:21:00,38.7,34.6,29.94,West,270,0.4,1.1,85,0.04,,,0.06,WUHU216HW,2013-04-05 07:21:00,
2013-04-05 03:26:00,38.9,35.3,29.94,WSW,248,0.4,1.8,87,0.05,,,0.08,WUHU216HW,2013-04-05 07:26:00,
2013-04-05 03:31:00,38.7,34.6,29.94,South,180,0.2,1.8,85,0.05,,,0.08,WUHU216HW,2013-04-05 07:31:00,
2013-04-05 03:37:00,38.7,34.3,29.94,WSW,248,0.0,0.9,84,0.05,,,0.09,WUHU216HW,2013-04-05 07:37:00,
2013-04-05 03:42:00,38.7,34.6,29.95,WSW,248,0.0,0.9,85,0.06,,,0.09,WUHU216HW,2013-04-05 07:42:00,
2013-04-05 03:47:00,38.7,34.6,29.94,WSW,248,0.7,1.1,85,0.06,,,0.10,WUHU216HW,2013-04-05 07:47:00,
2013-04-05 03:52:00,38.9,34.5,29.94,SSW,203,0.4,1.1,84,0.07,,,0.11,WUHU216HW,2013-04-05 07:52:00,
2013-04-05 03:57:00,38.7,34.3,29.94,SSW,203,0.0,0.7,84,0.07,,,0.11,WUHU216HW,2013-04-05 07:57:00,
2013-04-05 04:02:00,38.7,34.3,29.94,SSW,203,0.0,0.7,84,0.07,,,0.11,WUHU216HW,2013-04-05 08:02:00,
2013-04-05 04:07:00,38.9,34.5,29.93,WSW,248,0.4,0.7,84,0.07,,,0.11,WUHU216HW,2013-04-05 08:07:00,
2013-04-05 04:12:00,38.7,34.6,29.93,WSW,248,0.4,1.1,85,0.06,,,0.11,WUHU216HW,2013-04-05 08:12:00,
2013-04-05 04:17:00,38.7,34.3,29.94,WSW,248,0.0,1.1,84,0.05,,,0.11,WUHU216HW,2013-04-05 08:17:00,
2013-04-05 04:22:00,38.7,34.3,29.93,WSW,248,0.0,1.1,84,0.04,,,0.11,WUHU216HW,2013-04-05 08:22:00,
2013-04-05 04:27:00,38.7,34.6,29.93,SW,225,0.4,1.1,85,0.04,,,0.11,WUHU216HW,2013-04-05 08:27:00,
2013-04-05 04:32:00,38.7,34.3,29.94,SSW,203,0.0,0.4,84,0.03,,,0.12,WUHU216HW,2013-04-05 08:32:00,
2013-04-05 04:37:00,38.9,34.5,29.94,SW,225,0.4,0.4,84,0.03,,,0.12,WUHU216HW,2013-04-05 08:37:00,
2013-04-05 04:42:00,38.9,34.5,29.93,SW,225,0.0,0.9,84,0.02,,,0.12,WUHU216HW,2013-04-05 08:42:00,
2013-04-05 04:47:00,38.9,34.5,29.93,West,270,0.0,0.9,84,0.02,,,0.12,WUHU216HW,2013-04-05 08:47:00,
2013-04-05 04:52:00,38.9,34.5,29.93,SW,225,0.0,0.4,84,0.02,,,0.12,WUHU216HW,2013-04-05 08:52:00,
2013-04-05 04:57:00,39.1,34.7,29.93,NE,45,0.2,0.2,84,0.02,,,0.13,WUHU216HW,2013-04-05 08:57:00,
2013-04-05 05:02:00,39.1,34.7,29.92,West,270,0.4,0.4,84,0.02,,,0.13,WUHU216HW,2013-04-05 09:02:00,
2013-04-05 05:07:00,39.1,34.9,29.92,WSW,248,0.0,0.9,85,0.02,,,0.13,WUHU216HW,2013-04-05 09:07:00,
2013-04-05 05:12:00,39.1,34.9,29.93,WSW,248,0.0,0.9,85,0.02,,,0.13,WUHU216HW,2013-04-05 09:12:00,
2013-04-05 05:18:00,39.1,34.9,29.92,WSW,248,0.0,0.0,85,0.02,,,0.13,WUHU216HW,2013-04-05 09:18:00,
2013-04-05 05:23:00,39.1,35.2,29.92,WSW,248,0.7,0.7,86,0.02,,,0.13,WUHU216HW,2013-04-05 09:23:00,
2013-04-05 05:28:00,39.1,35.2,29.92,WSW,248,0.0,1.6,86,0.01,,,0.13,WUHU216HW,2013-04-05 09:28:00,
2013-04-05 05:33:00,39.1,35.2,29.92,WSW,248,0.0,1.6,86,0.01,,,0.13,WUHU216HW,2013-04-05 09:33:00,
2013-04-05 05:38:00,38.9,34.7,29.92,WSW,248,0.0,0.4,85,0.01,,,0.13,WUHU216HW,2013-04-05 09:38:00,
2013-04-05 05:43:00,39.1,34.9,29.92,SSW,203,0.4,0.4,85,0.01,,,0.13,WUHU216HW,2013-04-05 09:43:00,
2013-04-05 05:48:00,39.1,34.9,29.92,SW,225,0.0,0.4,85,0.01,,,0.13,WUHU216HW,2013-04-05 09:48:00,
2013-04-05 05:53:00,39.1,34.9,29.92,SE,135,0.0,0.4,85,0.00,,,0.13,WUHU216HW,2013-04-05 09:53:00,
2013-04-05 05:58:00,38.9,35.0,29.92,West,270,0.9,0.9,86,0.00,,,0.13,WUHU216HW,2013-04-05 09:58:00,
2013-04-05 06:03:00,39.1,35.2,29.92,West,270,0.0,0.9,86,0.00,,,0.13,WUHU216HW,2013-04-05 10:03:00,
2013-04-05 06:08:00,38.9,35.0,29.92,ESE,113,0.4,0.9,86,0.00,,,0.13,WUHU216HW,2013-04-05 10:08:00,
2013-04-05 06:13:00,39.1,35.2,29.92,SSW,203,0.0,0.4,86,0.00,,,0.13,WUHU216HW,2013-04-05 10:13:00,
2013-04-05 06:18:00,39.1,35.2,29.92,SSW,203,0.0,0.4,86,0.00,,,0.13,WUHU216HW,2013-04-05 10:18:00,
2013-04-05 06:23:00,39.1,34.9,29.92,SE,135,0.2,0.2,85,0.00,,,0.13,WUHU216HW,2013-04-05 10:23:00,
2013-04-05 06:28:00,39.2,35.1,29.92,SW,225,0.4,0.9,85,0.00,,,0.13,WUHU216HW,2013-04-05 10:28:00,
2013-04-05 06:33:00,39.2,35.4,29.92,SSW,203,0.7,0.9,86,0.00,,,0.13,WUHU216HW,2013-04-05 10:33:00,
2013-04-05 06:38:00,39.2,35.4,29.92,ESE,113,0.0,0.7,86,0.00,,,0.13,WUHU216HW,2013-04-05 10:38:00,
2013-04-05 06:44:00,39.2,35.6,29.92,ESE,113,0.0,1.1,87,0.00,,,0.13,WUHU216HW,2013-04-05 10:44:00,
2013-04-05 06:49:00,39.2,35.4,29.92,SW,225,0.9,1.1,86,0.00,,,0.13,WUHU216HW,2013-04-05 10:49:00,
2013-04-05 06:54:00,39.2,35.4,29.92,SE,135,0.0,0.9,86,0.00,,,0.13,WUHU216HW,2013-04-05 10:54:00,
2013-04-05 06:59:00,39.4,35.8,29.91,SW,225,0.2,0.7,87,0.00,,,0.13,WUHU216HW,2013-04-05 10:59:00,
2013-04-05 07:04:00,39.4,35.6,29.92,South,180,0.2,0.4,86,0.00,,,0.13,WUHU216HW,2013-04-05 11:04:00,
2013-04-05 07:09:00,39.4,35.6,29.91,South,180,0.0,0.9,86,0.00,,,0.13,WUHU216HW,2013-04-05 11:09:00,
2013-04-05 07:14:00,39.6,35.7,29.91,SSE,158,0.2,0.9,86,0.00,,,0.13,WUHU216HW,2013-04-05 11:14:00,
2013-04-05 07:19:00,39.6,35.7,29.92,SSE,158,0.0,1.1,86,0.00,,,0.13,WUHU216HW,2013-04-05 11:19:00,
2013-04-05 07:24:00,39.6,35.7,29.91,East,90,1.8,1.8,86,0.00,,,0.13,WUHU216HW,2013-04-05 11:24:00,
2013-04-05 07:29:00,39.4,35.6,29.91,SSW,203,0.4,2.5,86,0.00,,,0.13,WUHU216HW,2013-04-05 11:29:00,
2013-04-05 07:34:00,39.6,35.7,29.91,SW,225,1.8,2.5,86,0.00,,,0.13,WUHU216HW,2013-04-05 11:34:00,
2013-04-05 07:40:00,39.6,36.0,29.91,SE,135,0.4,1.8,87,0.00,,,0.13,WUHU216HW,2013-04-05 11:40:00,
2013-04-05 07:45:00,39.6,36.0,29.92,SSE,158,1.1,2.0,87,0.00,,,0.13,WUHU216HW,2013-04-05 11:45:00,
2013-04-05 07:50:00,39.8,36.2,29.92,SE,135,0.7,2.7,87,0.00,,,0.13,WUHU216HW,2013-04-05 11:50:00,
2013-04-05 07:55:00,40.0,36.4,29.92,South,180,0.0,2.7,87,0.00,,,0.13,WUHU216HW,2013-04-05 11:55:00,
2013-04-05 08:00:00,40.0,36.4,29.92,SSE,158,0.4,2.0,87,0.00,,,0.13,WUHU216HW,2013-04-05 12:00:00,
2013-04-05 08:05:00,40.0,36.1,29.92,West,270,0.2,1.1,86,0.00,,,0.13,WUHU216HW,2013-04-05 12:05:00,
2013-04-05 08:10:00,39.8,35.9,29.92,SE,135,1.1,1.1,86,0.00,,,0.13,WUHU216HW,2013-04-05 12:10:00,
2013-04-05 08:15:00,40.1,36.3,29.91,SE,135,0.7,1.1,86,0.00,,,0.13,WUHU216HW,2013-04-05 12:15:00,
2013-04-05 08:20:00,42.3,38.7,29.92,ENE,68,0.7,1.3,87,0.00,,,0.13,WUHU216HW,2013-04-05 12:20:00,
2013-04-05 08:25:00,43.4,40.1,29.92,SSW,203,0.0,1.3,88,0.00,,,0.13,WUHU216HW,2013-04-05 12:25:00,
2013-04-05 08:30:00,44.1,40.5,29.92,ESE,113,0.4,0.7,87,0.00,,,0.13,WUHU216HW,2013-04-05 12:30:00,
2013-04-05 08:35:00,44.6,40.2,29.92,SW,225,0.9,0.9,84,0.00,,,0.13,WUHU216HW,2013-04-05 12:35:00,
2013-04-05 08:40:00,44.6,39.5,29.92,SW,225,0.2,0.9,82,0.00,,,0.13,WUHU216HW,2013-04-05 12:40:00,
2013-04-05 08:45:00,43.6,38.1,29.92,ESE,113,0.9,0.9,81,0.00,,,0.13,WUHU216HW,2013-04-05 12:45:00,
2013-04-05 08:50:00,43.2,37.7,29.91,ESE,113,0.7,0.9,81,0.00,,,0.13,WUHU216HW,2013-04-05 12:50:00,
2013-04-05 08:55:00,42.8,37.4,29.90,East,90,0.7,0.9,81,0.00,,,0.13,WUHU216HW,2013-04-05 12:55:00,
2013-04-05 09:01:00,42.7,37.2,29.90,SW,225,0.0,0.9,81,0.00,,,0.13,WUHU216HW,2013-04-05 13:01:00,
2013-04-05 09:06:00,42.8,37.4,29.90,SSE,158,0.0,0.7,81,0.00,,,0.13,WUHU216HW,2013-04-05 13:06:00,
2013-04-05 09:11:00,44.8,40.0,29.90,ENE,68,1.8,1.8,83,0.00,,,0.13,WUHU216HW,2013-04-05 13:11:00,
2013-04-05 09:16:00,46.1,40.6,29.90,ESE,113,0.9,1.8,81,0.00,,,0.13,WUHU216HW,2013-04-05 13:16:00,
2013-04-05 09:21:00,46.8,41.1,29.89,SW,225,0.0,0.9,80,0.00,,,0.13,WUHU216HW,2013-04-05 13:21:00,
2013-04-05 09:27:00,47.9,41.7,29.90,ESE,113,0.0,1.6,79,0.00,,,0.13,WUHU216HW,2013-04-05 13:27:00,
2013-04-05 09:32:00,48.4,41.1,29.90,ESE,113,0.9,1.6,76,0.00,,,0.13,WUHU216HW,2013-04-05 13:32:00,
2013-04-05 09:37:00,48.1,40.8,29.89,ENE,68,0.2,0.9,76,0.00,,,0.13,WUHU216HW,2013-04-05 13:37:00,
2013-04-05 09:42:00,47.9,40.2,29.90,SE,135,0.4,0.9,75,0.00,,,0.13,WUHU216HW,2013-04-05 13:42:00,
2013-04-05 09:47:00,48.6,40.6,29.90,East,90,1.6,1.6,74,0.00,,,0.13,WUHU216HW,2013-04-05 13:47:00,
2013-04-05 09:52:00,49.0,40.3,29.90,SE,135,2.0,2.0,72,0.00,,,0.13,WUHU216HW,2013-04-05 13:52:00,
2013-04-05 09:57:00,50.0,41.4,29.90,South,180,0.7,2.0,72,0.00,,,0.13,WUHU216HW,2013-04-05 13:57:00,
2013-04-05 10:02:00,50.9,42.0,29.90,East,90,0.4,2.0,71,0.00,,,0.13,WUHU216HW,2013-04-05 14:02:00,
2013-04-05 10:07:00,51.7,42.3,29.90,SE,135,0.0,0.7,70,0.00,,,0.13,WUHU216HW,2013-04-05 14:07:00,
2013-04-05 10:12:00,52.0,41.4,29.90,SSE,158,1.1,1.1,67,0.00,,,0.13,WUHU216HW,2013-04-05 14:12:00,
2013-04-05 10:17:00,52.2,41.1,29.90,SSW,203,1.8,1.8,66,0.00,,,0.13,WUHU216HW,2013-04-05 14:17:00,
2013-04-05 10:22:00,52.6,40.7,29.90,East,90,1.1,1.8,64,0.00,,,0.13,WUHU216HW,2013-04-05 14:22:00,
2013-04-05 10:27:00,52.7,40.1,29.90,SE,135,1.1,2.5,62,0.00,,,0.13,WUHU216HW,2013-04-05 14:27:00,
2013-04-05 10:32:00,53.1,39.2,29.90,WSW,248,2.5,2.5,59,0.00,,,0.13,WUHU216HW,2013-04-05 14:32:00,
2013-04-05 10:37:00,53.3,38.9,29.90,ESE,113,0.2,2.5,58,0.00,,,0.13,WUHU216HW,2013-04-05 14:37:00,
2013-04-05 10:42:00,53.8,39.3,29.90,SE,135,1.1,2.5,58,0.00,,,0.13,WUHU216HW,2013-04-05 14:42:00,
2013-04-05 10:48:00,54.7,39.7,29.89,ESE,113,1.1,1.6,57,0.00,,,0.13,WUHU216HW,2013-04-05 14:48:00,
2013-04-05 10:53:00,54.7,38.4,29.89,South,180,1.1,1.6,54,0.00,,,0.13,WUHU216HW,2013-04-05 14:53:00,
2013-04-05 10:58:00,54.7,37.4,29.89,ESE,113,1.6,1.6,52,0.00,,,0.13,WUHU216HW,2013-04-05 14:58:00,
2013-04-05 11:03:00,55.1,37.3,29.89,South,180,0.7,2.0,51,0.00,,,0.13,WUHU216HW,2013-04-05 15:03:00,
2013-04-05 11:09:00,55.3,37.9,29.89,ESE,113,0.4,2.0,52,0.00,,,0.13,WUHU216HW,2013-04-05 15:09:00,
2013-04-05 11:14:00,55.1,36.7,29.89,East,90,1.6,3.4,50,0.00,,,0.13,WUHU216HW,2013-04-05 15:14:00,
2013-04-05 11:19:00,55.3,36.9,29.89,SE,135,0.9,1.8,50,0.00,,,0.13,WUHU216HW,2013-04-05 15:19:00,
2013-04-05 11:25:00,55.4,37.1,29.89,SSW,203,2.2,2.2,50,0.00,,,0.13,WUHU216HW,2013-04-05 15:25:00,
2013-04-05 11:30:00,55.6,36.7,29.89,South,180,2.2,4.0,49,0.00,,,0.13,WUHU216HW,2013-04-05 15:30:00,
2013-04-05 11:35:00,56.0,37.1,29.89,West,270,2.5,4.0,49,0.00,,,0.13,WUHU216HW,2013-04-05 15:35:00,
2013-04-05 11:40:00,56.0,37.1,29.89,SSW,203,4.0,4.0,49,0.00,,,0.13,WUHU216HW,2013-04-05 15:40:00,
2013-04-05 11:45:00,55.8,35.7,29.89,East,90,1.8,4.0,47,0.00,,,0.13,WUHU216HW,2013-04-05 15:45:00,
2013-04-05 11:50:00,55.8,36.4,29.88,ESE,113,1.1,4.7,48,0.00,,,0.13,WUHU216HW,2013-04-05 15:50:00,
2013-04-05 11:55:00,56.2,36.1,29.88,SW,225,1.6,4.7,47,0.00,,,0.13,WUHU216HW,2013-04-05 15:55:00,
2013-04-05 12:00:00,56.2,35.6,29.88,ENE,68,2.0,3.4,46,0.00,,,0.13,WUHU216HW,2013-04-05 16:00:00,
2013-04-05 12:05:00,56.2,35.6,29.88,ESE,113,2.2,3.4,46,0.00,,,0.13,WUHU216HW,2013-04-05 16:05:00,
2013-04-05 12:10:00,56.5,34.7,29.88,SW,225,3.4,3.4,44,0.00,,,0.13,WUHU216HW,2013-04-05 16:10:00,
2013-04-05 12:15:00,56.5,34.2,29.87,SSE,158,2.0,3.4,43,0.00,,,0.13,WUHU216HW,2013-04-05 16:15:00,
2013-04-05 12:20:00,56.5,34.2,29.87,SSE,158,3.1,3.4,43,0.00,,,0.13,WUHU216HW,2013-04-05 16:20:00,
2013-04-05 12:25:00,56.9,33.9,29.86,ESE,113,4.9,4.9,42,0.00,,,0.13,WUHU216HW,2013-04-05 16:25:00,
2013-04-05 12:31:00,56.9,34.5,29.86,ESE,113,0.4,4.9,43,0.00,,,0.13,WUHU216HW,2013-04-05 16:31:00,
2013-04-05 12:36:00,57.2,34.8,29.87,SSW,203,2.5,2.9,43,0.00,,,0.13,WUHU216HW,2013-04-05 16:36:00,
2013-04-05 12:41:00,57.6,34.6,29.86,ESE,113,1.8,2.7,42,0.00,,,0.13,WUHU216HW,2013-04-05 16:41:00,
2013-04-05 12:46:00,57.8,35.4,29.86,ENE,68,1.1,2.7,43,0.00,,,0.13,WUHU216HW,2013-04-05 16:46:00,
2013-04-05 12:51:00,58.3,35.3,29.86,SE,135,3.6,3.6,42,0.00,,,0.13,WUHU216HW,2013-04-05 16:51:00,
2013-04-05 12:56:00,58.3,34.1,29.85,ENE,68,2.2,3.6,40,0.00,,,0.13,WUHU216HW,2013-04-05 16:56:00,
2013-04-05 13:01:00,58.7,35.0,29.86,WSW,248,1.6,3.4,41,0.00,,,0.13,WUHU216HW,2013-04-05 17:01:00,
2013-04-05 13:06:00,58.7,35.0,29.85,WSW,248,1.6,2.2,41,0.00,,,0.13,WUHU216HW,2013-04-05 17:06:00,
2013-04-05 13:11:00,58.7,35.0,29.85,WSW,248,1.6,1.6,41,0.00,,,0.13,WUHU216HW,2013-04-05 17:11:00,
2013-04-05 13:32:00,60.1,32.1,29.84,South,180,4.3,4.3,35,0.00,,,0.13,WUHU216HW,2013-04-05 17:32:00,
2013-04-05 13:37:00,60.1,32.9,29.84,ESE,113,2.7,4.3,36,0.00,,,0.13,WUHU216HW,2013-04-05 17:37:00,
2013-04-05 13:42:00,60.1,32.9,29.84,ESE,113,1.1,4.3,36,0.00,,,0.13,WUHU216HW,2013-04-05 17:42:00,
2013-04-05 13:47:00,60.3,30.9,29.84,East,90,1.3,3.1,33,0.00,,,0.13,WUHU216HW,2013-04-05 17:47:00,
2013-04-05 13:52:00,60.5,29.6,29.84,WSW,248,6.3,6.3,31,0.00,,,0.13,WUHU216HW,2013-04-05 17:52:00,
2013-04-05 13:58:00,60.5,31.8,29.84,SSW,203,0.9,6.3,34,0.00,,,0.13,WUHU216HW,2013-04-05 17:58:00,
2013-04-05 14:03:00,60.7,31.1,29.84,SSW,203,1.1,4.7,33,0.00,,,0.13,WUHU216HW,2013-04-05 18:03:00,
2013-04-05 14:08:00,60.8,31.3,29.83,SE,135,4.0,4.7,33,0.00,,,0.13,WUHU216HW,2013-04-05 18:08:00,
2013-04-05 14:13:00,61.0,30.1,29.83,SE,135,1.8,4.7,31,0.00,,,0.13,WUHU216HW,2013-04-05 18:13:00,
2013-04-05 14:18:00,61.4,31.8,29.83,SSE,158,1.8,4.7,33,0.00,,,0.13,WUHU216HW,2013-04-05 18:18:00,
2013-04-05 14:23:00,61.7,30.0,29.83,East,90,3.6,3.6,30,0.00,,,0.13,WUHU216HW,2013-04-05 18:23:00,
2013-04-05 14:28:00,61.9,30.9,29.82,SSE,158,0.9,3.6,31,0.00,,,0.13,WUHU216HW,2013-04-05 18:28:00,
2013-04-05 14:33:00,62.3,31.1,29.82,WNW,293,3.4,3.6,31,0.00,,,0.13,WUHU216HW,2013-04-05 18:33:00,
2013-04-05 14:38:00,62.5,31.3,29.82,East,90,1.1,3.4,31,0.00,,,0.13,WUHU216HW,2013-04-05 18:38:00,
2013-04-05 14:43:00,62.6,31.5,29.82,ESE,113,2.5,4.7,31,0.00,,,0.13,WUHU216HW,2013-04-05 18:43:00,
2013-04-05 14:48:00,62.8,31.7,29.82,ESE,113,2.0,4.7,31,0.00,,,0.13,WUHU216HW,2013-04-05 18:48:00,
2013-04-05 14:53:00,62.6,30.8,29.82,East,90,1.6,2.5,30,0.00,,,0.13,WUHU216HW,2013-04-05 18:53:00,
2013-04-05 14:58:00,63.5,32.3,29.82,SE,135,1.1,3.1,31,0.00,,,0.13,WUHU216HW,2013-04-05 18:58:00,
2013-04-05 15:03:00,63.7,32.5,29.81,ESE,113,2.5,3.4,31,0.00,,,0.13,WUHU216HW,2013-04-05 19:03:00,
2013-04-05 15:08:00,63.5,32.3,29.81,ENE,68,1.6,3.4,31,0.00,,,0.13,WUHU216HW,2013-04-05 19:08:00,
2013-04-05 15:14:00,63.7,32.5,29.81,NE,45,0.4,3.1,31,0.00,,,0.13,WUHU216HW,2013-04-05 19:14:00,
2013-04-05 15:19:00,63.7,32.5,29.81,SSW,203,2.5,2.5,31,0.00,,,0.13,WUHU216HW,2013-04-05 19:19:00,
2013-04-05 15:24:00,63.9,32.7,29.81,SW,225,2.5,2.5,31,0.00,,,0.13,WUHU216HW,2013-04-05 19:24:00,
2013-04-05 15:29:00,64.1,32.0,29.81,SSW,203,1.8,2.5,30,0.00,,,0.13,WUHU216HW,2013-04-05 19:29:00,
2013-04-05 15:34:00,63.9,31.0,29.81,ESE,113,1.8,2.5,29,0.00,,,0.13,WUHU216HW,2013-04-05 19:34:00,
2013-04-05 15:39:00,64.6,30.6,29.80,WSW,248,5.4,5.4,28,0.00,,,0.13,WUHU216HW,2013-04-05 19:39:00,
2013-04-05 15:44:00,64.4,31.4,29.80,ESE,113,2.5,5.4,29,0.00,,,0.13,WUHU216HW,2013-04-05 19:44:00,
2013-04-05 15:50:00,65.0,32.9,29.80,SW,225,2.9,2.9,30,0.00,,,0.13,WUHU216HW,2013-04-05 19:50:00,
2013-04-05 15:55:00,65.7,33.6,29.80,SSE,158,2.0,2.9,30,0.00,,,0.13,WUHU216HW,2013-04-05 19:55:00,
2013-04-05 16:00:00,66.4,30.2,29.80,WSW,248,4.5,4.5,26,0.00,,,0.13,WUHU216HW,2013-04-05 20:00:00,
2013-04-05 16:05:00,66.4,34.2,29.80,SW,225,1.8,4.5,30,0.00,,,0.13,WUHU216HW,2013-04-05 20:05:00,
2013-04-05 16:10:00,66.2,33.0,29.80,SSE,158,0.4,2.5,29,0.00,,,0.13,WUHU216HW,2013-04-05 20:10:00,
2013-04-05 16:15:00,66.8,34.5,29.80,SSE,158,0.4,1.8,30,0.00,,,0.13,WUHU216HW,2013-04-05 20:15:00,
2013-04-05 16:20:00,67.5,34.0,29.80,ESE,113,1.1,1.3,29,0.00,,,0.13,WUHU216HW,2013-04-05 20:20:00,
2013-04-05 16:25:00,67.9,33.3,29.80,East,90,3.1,3.1,28,0.00,,,0.13,WUHU216HW,2013-04-05 20:25:00,
2013-04-05 16:30:00,67.9,31.3,29.80,East,90,1.3,3.1,26,0.00,,,0.13,WUHU216HW,2013-04-05 20:30:00,
2013-04-05 16:35:00,67.9,33.3,29.80,ESE,113,1.8,3.1,28,0.00,,,0.13,WUHU216HW,2013-04-05 20:35:00,
2013-04-05 16:40:00,67.5,32.0,29.80,West,270,3.1,3.1,27,0.00,,,0.13,WUHU216HW,2013-04-05 20:40:00,
2013-04-05 16:45:00,67.7,33.2,29.80,South,180,0.7,3.1,28,0.00,,,0.13,WUHU216HW,2013-04-05 20:45:00,
2013-04-05 16:50:00,67.9,33.3,29.80,SE,135,2.9,2.9,28,0.00,,,0.13,WUHU216HW,2013-04-05 20:50:00,
2013-04-05 16:56:00,68.0,34.5,29.80,SE,135,1.8,2.9,29,0.00,,,0.13,WUHU216HW,2013-04-05 20:56:00,
2013-04-05 17:01:00,68.0,33.5,29.80,SSE,158,0.4,1.8,28,0.00,,,0.13,WUHU216HW,2013-04-05 21:01:00,
2013-04-05 17:07:00,67.9,32.3,29.80,SW,225,1.1,2.5,27,0.00,,,0.13,WUHU216HW,2013-04-05 21:07:00,
2013-04-05 17:12:00,67.5,33.0,29.80,ENE,68,1.6,1.8,28,0.00,,,0.13,WUHU216HW,2013-04-05 21:12:00,
2013-04-05 17:17:00,67.3,33.9,29.80,NNE,23,1.8,1.8,29,0.00,,,0.13,WUHU216HW,2013-04-05 21:17:00,
2013-04-05 17:22:00,67.3,32.9,29.80,SE,135,0.7,3.4,28,0.00,,,0.13,WUHU216HW,2013-04-05 21:22:00,
2013-04-05 17:27:00,67.3,33.9,29.80,SE,135,0.4,3.4,29,0.00,,,0.13,WUHU216HW,2013-04-05 21:27:00,
2013-04-05 17:32:00,67.3,32.9,29.80,SSE,158,2.7,2.7,28,0.00,,,0.13,WUHU216HW,2013-04-05 21:32:00,
2013-04-05 17:37:00,67.0,33.6,29.81,SW,225,2.0,2.7,29,0.00,,,0.13,WUHU216HW,2013-04-05 21:37:00,
2013-04-05 17:42:00,67.0,32.6,29.81,East,90,1.6,2.0,28,0.00,,,0.13,WUHU216HW,2013-04-05 21:42:00,
2013-04-05 17:47:00,67.0,34.6,29.81,SE,135,1.8,2.0,30,0.00,,,0.13,WUHU216HW,2013-04-05 21:47:00,
2013-04-05 17:52:00,66.6,33.3,29.81,ESE,113,4.0,4.0,29,0.00,,,0.13,WUHU216HW,2013-04-05 21:52:00,
2013-04-05 17:57:00,66.4,33.1,29.81,NE,45,3.6,4.0,29,0.00,,,0.13,WUHU216HW,2013-04-05 21:57:00,
2013-04-05 18:02:00,65.9,31.7,29.82,SSE,158,3.8,4.0,28,0.00,,,0.13,WUHU216HW,2013-04-05 22:02:00,
2013-04-05 18:07:00,65.7,32.5,29.82,East,90,0.7,3.8,29,0.00,,,0.13,WUHU216HW,2013-04-05 22:07:00,
2013-04-05 18:13:00,65.2,31.1,29.82,ESE,113,2.2,3.8,28,0.00,,,0.13,WUHU216HW,2013-04-05 22:13:00,
2013-04-05 18:18:00,65.0,31.9,29.83,SSE,158,2.0,2.2,29,0.00,,,0.13,WUHU216HW,2013-04-05 22:18:00,
2013-04-05 18:23:00,65.0,31.9,29.83,SSE,158,2.0,2.2,29,0.00,,,0.13,WUHU216HW,2013-04-05 22:23:00,
2013-04-05 18:28:00,65.0,31.9,29.83,SSE,158,2.0,2.0,29,0.00,,,0.13,WUHU216HW,2013-04-05 22:28:00,
2013-04-05 18:48:00,63.2,29.4,29.85,SSW,203,2.5,2.5,28,0.00,,,0.13,WUHU216HW,2013-04-05 22:48:00,
2013-04-05 18:53:00,63.0,29.2,29.85,SW,225,5.6,5.6,28,0.00,,,0.13,WUHU216HW,2013-04-05 22:53:00,
2013-04-05 18:58:00,62.6,29.8,29.85,ESE,113,3.8,5.6,29,0.00,,,0.13,WUHU216HW,2013-04-05 22:58:00,
2013-04-05 19:03:00,62.5,29.6,29.86,WSW,248,1.3,3.8,29,0.00,,,0.13,WUHU216HW,2013-04-05 23:03:00,
2013-04-05 19:08:00,62.3,29.5,29.86,ESE,113,0.9,3.8,29,0.00,,,0.13,WUHU216HW,2013-04-05 23:08:00,
2013-04-05 19:13:00,61.9,29.2,29.86,SSW,203,3.4,3.4,29,0.00,,,0.13,WUHU216HW,2013-04-05 23:13:00,
2013-04-05 19:18:00,61.7,30.0,29.87,ESE,113,0.0,3.4,30,0.00,,,0.13,WUHU216HW,2013-04-05 23:18:00,
2013-04-05 19:24:00,61.6,29.8,29.87,East,90,1.1,3.4,30,0.00,,,0.13,WUHU216HW,2013-04-05 23:24:00,
2013-04-05 19:29:00,61.4,29.6,29.87,SE,135,2.2,2.9,30,0.00,,,0.13,WUHU216HW,2013-04-05 23:29:00,
2013-04-05 19:34:00,60.8,29.2,29.87,WSW,248,2.7,2.7,30,0.00,,,0.13,WUHU216HW,2013-04-05 23:34:00,
2013-04-05 19:39:00,60.5,29.6,29.88,WSW,248,2.5,2.7,31,0.00,,,0.13,WUHU216HW,2013-04-05 23:39:00,
2013-04-05 19:44:00,60.3,29.4,29.88,South,180,2.9,2.9,31,0.00,,,0.13,WUHU216HW,2013-04-05 23:44:00,
2013-04-05 19:49:00,60.1,29.4,29.88,South,180,0.4,2.9,31,0.00,,,0.13,WUHU216HW,2013-04-05 23:49:00,
2013-04-05 19:54:00,59.6,29.6,29.89,South,180,1.6,2.9,32,0.00,,,0.13,WUHU216HW,2013-04-05 23:54:00,
2013-04-05 19:59:00,59.4,29.4,29.89,SE,135,2.0,3.4,32,0.00,,,0.13,WUHU216HW,2013-04-05 23:59:00,
2013-04-05 20:04:00,59.0,29.2,29.90,SSW,203,1.6,3.4,32,0.00,,,0.13,WUHU216HW,2013-04-06 00:04:00,
2013-04-05 20:09:00,59.0,29.2,29.90,ESE,113,0.9,2.5,32,0.00,,,0.13,WUHU216HW,2013-04-06 00:09:00,
2013-04-05 20:15:00,58.9,29.0,29.91,ESE,113,2.7,2.7,32,0.00,,,0.13,WUHU216HW,2013-04-06 00:15:00,
2013-04-05 20:20:00,58.5,29.3,29.91,SE,135,0.4,2.7,33,0.00,,,0.13,WUHU216HW,2013-04-06 00:20:00,
2013-04-05 20:25:00,58.3,29.2,29.91,SE,135,0.0,1.1,33,0.00,,,0.13,WUHU216HW,2013-04-06 00:25:00,
2013-04-05 20:30:00,58.0,28.9,29.91,ESE,113,1.6,2.2,33,0.00,,,0.13,WUHU216HW,2013-04-06 00:30:00,
2013-04-05 20:35:00,58.0,28.9,29.92,SSW,203,2.5,2.5,33,0.00,,,0.13,WUHU216HW,2013-04-06 00:35:00,
2013-04-05 20:40:00,57.6,29.3,29.92,ESE,113,0.7,2.5,34,0.00,,,0.13,WUHU216HW,2013-04-06 00:40:00,
2013-04-05 20:45:00,57.4,29.1,29.93,SW,225,0.0,0.7,34,0.00,,,0.13,WUHU216HW,2013-04-06 00:45:00,
2013-04-05 20:50:00,57.2,28.9,29.93,ESE,113,0.9,0.9,34,0.00,,,0.13,WUHU216HW,2013-04-06 00:50:00,
2013-04-05 20:55:00,57.1,28.7,29.93,SSW,203,0.4,2.5,34,0.00,,,0.13,WUHU216HW,2013-04-06 00:55:00,
2013-04-05 21:00:00,56.7,28.5,29.94,ESE,113,0.0,2.5,34,0.00,,,0.13,WUHU216HW,2013-04-06 01:00:00,
2013-04-05 21:06:00,56.5,28.3,29.94,ESE,113,1.1,1.3,34,0.00,,,0.13,WUHU216HW,2013-04-06 01:06:00,
2013-04-05 21:11:00,56.2,28.6,29.95,SE,135,0.0,1.1,35,0.00,,,0.13,WUHU216HW,2013-04-06 01:11:00,
2013-04-05 21:16:00,56.0,29.2,29.95,ESE,113,1.1,1.1,36,0.00,,,0.13,WUHU216HW,2013-04-06 01:16:00,
2013-04-05 21:21:00,56.0,28.4,29.95,SSE,158,1.3,1.3,35,0.00,,,0.13,WUHU216HW,2013-04-06 01:21:00,
2013-04-05 21:26:00,56.2,27.9,29.95,ESE,113,2.5,2.5,34,0.00,,,0.13,WUHU216HW,2013-04-06 01:26:00,
2013-04-05 21:31:00,56.0,27.8,29.96,ESE,113,0.9,2.5,34,0.00,,,0.13,WUHU216HW,2013-04-06 01:31:00,
2013-04-05 21:36:00,55.6,27.5,29.96,SSE,158,2.0,2.7,34,0.00,,,0.13,WUHU216HW,2013-04-06 01:36:00,
2013-04-05 21:41:00,55.4,27.3,29.97,ESE,113,3.1,3.1,34,0.00,,,0.13,WUHU216HW,2013-04-06 01:41:00,
2013-04-05 21:47:00,55.6,27.5,29.97,ESE,113,0.2,3.1,34,0.00,,,0.13,WUHU216HW,2013-04-06 01:47:00,
2013-04-05 21:52:00,55.4,26.6,29.97,WSW,248,1.8,2.5,33,0.00,,,0.13,WUHU216HW,2013-04-06 01:52:00,
2013-04-05 21:57:00,55.3,26.5,29.97,SE,135,2.0,4.0,33,0.00,,,0.13,WUHU216HW,2013-04-06 01:57:00,
2013-04-05 22:02:00,55.3,26.5,29.98,SE,135,1.6,4.0,33,0.00,,,0.13,WUHU216HW,2013-04-06 02:02:00,
2013-04-05 22:07:00,54.9,26.1,29.98,SSE,158,0.0,2.5,33,0.00,,,0.13,WUHU216HW,2013-04-06 02:07:00,
2013-04-05 22:12:00,54.7,26.0,29.98,ESE,113,0.9,2.5,33,0.00,,,0.13,WUHU216HW,2013-04-06 02:12:00,
2013-04-05 22:17:00,54.4,25.7,29.99,SE,135,0.4,0.9,33,0.00,,,0.13,WUHU216HW,2013-04-06 02:17:00,
2013-04-05 22:22:00,54.4,25.7,29.99,ESE,113,0.0,0.9,33,0.00,,,0.13,WUHU216HW,2013-04-06 02:22:00,
2013-04-05 22:27:00,54.0,25.4,29.99,ESE,113,1.8,1.8,33,0.00,,,0.13,WUHU216HW,2013-04-06 02:27:00,
2013-04-05 22:32:00,54.0,25.4,29.99,SE,135,1.3,1.8,33,0.00,,,0.13,WUHU216HW,2013-04-06 02:32:00,
2013-04-05 22:37:00,53.6,25.1,29.99,ESE,113,3.8,3.8,33,0.00,,,0.13,WUHU216HW,2013-04-06 02:37:00,
2013-04-05 22:42:00,53.6,25.1,29.99,ESE,113,3.4,3.8,33,0.00,,,0.13,WUHU216HW,2013-04-06 02:42:00,
2013-04-05 22:47:00,53.6,24.4,29.99,SE,135,1.8,3.8,32,0.00,,,0.13,WUHU216HW,2013-04-06 02:47:00,
2013-04-05 22:52:00,53.6,24.4,29.99,ESE,113,2.0,3.4,32,0.00,,,0.13,WUHU216HW,2013-04-06 02:52:00,
2013-04-05 22:57:00,53.6,24.4,29.99,ESE,113,1.3,2.0,32,0.00,,,0.13,WUHU216HW,2013-04-06 02:57:00,
2013-04-05 23:02:00,53.5,24.2,30.00,SE,135,3.1,3.1,32,0.00,,,0.13,WUHU216HW,2013-04-06 03:02:00,
2013-04-05 23:07:00,53.3,24.1,30.00,ESE,113,1.1,3.1,32,0.00,,,0.13,WUHU216HW,2013-04-06 03:07:00,
2013-04-05 23:13:00,52.9,23.8,30.00,East,90,1.8,3.1,32,0.00,,,0.13,WUHU216HW,2013-04-06 03:13:00,
2013-04-05 23:18:00,52.9,23.8,30.00,SE,135,1.6,2.2,32,0.00,,,0.13,WUHU216HW,2013-04-06 03:18:00,
2013-04-05 23:23:00,52.9,23.8,30.00,ENE,68,1.6,1.6,32,0.00,,,0.13,WUHU216HW,2013-04-06 03:23:00,
2013-04-05 23:28:00,52.9,23.8,30.00,ENE,68,1.6,1.6,32,0.00,,,0.13,WUHU216HW,2013-04-06 03:28:00,
2013-04-05 23:49:00,51.5,23.1,30.01,NE,45,2.5,2.5,33,0.00,,,0.13,WUHU216HW,2013-04-06 03:49:00,
2013-04-05 23:54:00,51.5,23.1,30.02,ESE,113,2.2,3.4,33,0.00,,,0.13,WUHU216HW,2013-04-06 03:54:00,
2013-04-05 23:59:00,51.3,23.7,30.02,SE,135,0.7,3.4,34,0.00,,,0.13,WUHU216HW,2013-04-06 03:59:00,